createdAt,value
2018-06-11T07:27:15.991Z,25
2018-06-11T07:28:05.933Z,25
2018-06-11T07:28:55.663Z,25
2018-06-11T07:29:45.165Z,25
2018-06-11T07:30:35.841Z,25
2018-06-11T07:31:26.281Z,25
2018-06-11T07:32:15.956Z,25
2018-06-11T07:33:05.505Z,25
2018-06-11T07:33:55.768Z,25
2018-06-11T07:34:46.415Z,25
2018-06-11T07:35:35.093Z,25.1
2018-06-11T07:36:26.236Z,25
2018-06-11T07:37:16.600Z,25.1
2018-06-11T07:38:06.100Z,25
2018-06-11T07:38:56.433Z,25
2018-06-11T07:39:46.480Z,25.1
2018-06-11T07:40:36.279Z,25
2018-06-11T07:41:26.377Z,25
2018-06-11T07:42:16.662Z,25
2018-06-11T07:43:05.480Z,25.1
2018-06-11T07:43:56.822Z,25.1
2018-06-11T07:44:46.619Z,25.1
2018-06-11T07:45:35.908Z,25.1
2018-06-11T07:46:27.042Z,25.1
2018-06-11T07:47:16.790Z,25.1
2018-06-11T07:48:07.482Z,25.1
2018-06-11T07:48:56.488Z,25.1
2018-06-11T07:49:47.563Z,25.1
2018-06-11T07:50:37.327Z,25.1
2018-06-11T07:51:27.359Z,25.1
2018-06-11T07:52:16.662Z,25.1
2018-06-11T07:53:07.336Z,25.1
2018-06-11T07:53:57.618Z,25.1
2018-06-11T07:54:46.855Z,25.1
2018-06-11T07:55:37.476Z,25.1
2018-06-11T07:56:27.535Z,25.1
2018-06-11T07:57:17.935Z,25.1
2018-06-11T07:58:07.639Z,25.1
2018-06-11T07:58:58.247Z,25.1
2018-06-11T07:59:48.308Z,25.1
2018-06-11T08:00:37.852Z,25.1
2018-06-11T08:01:29.400Z,25.1
2018-06-11T08:02:17.664Z,25.1
2018-06-11T08:03:07.742Z,25.1
2018-06-11T08:03:58.206Z,25.1
2018-06-11T08:04:48.494Z,25.1
2018-06-11T08:05:38.206Z,25.1
2018-06-11T08:06:28.801Z,25.1
2018-06-11T08:07:17.303Z,25.1
2018-06-11T08:08:09.005Z,25.1
2018-06-11T08:08:58.496Z,25.1
2018-06-11T08:09:48.560Z,25.1
2018-06-11T08:10:38.866Z,25.1
2018-06-11T08:11:28.918Z,25.1
2018-06-11T08:12:19.264Z,25.1
2018-06-11T08:13:08.846Z,25.1
2018-06-11T08:13:58.629Z,25.1
2018-06-11T08:14:48.976Z,25.1
2018-06-11T08:15:38.479Z,25.1
2018-06-11T08:16:29.048Z,25.1
2018-06-11T08:17:19.644Z,25.1
2018-06-11T08:18:09.486Z,25.1
2018-06-11T08:18:59.825Z,25.1
2018-06-11T08:19:49.640Z,25.1
2018-06-11T08:20:39.668Z,25.1
2018-06-11T08:21:29.472Z,25.1
2018-06-11T08:22:19.781Z,25.1
2018-06-11T08:23:09.862Z,25.1
2018-06-11T08:23:59.899Z,25.1
2018-06-11T08:24:49.475Z,25.1
2018-06-11T08:25:40.302Z,25.1
2018-06-11T08:26:29.867Z,25.1
2018-06-11T08:27:19.748Z,25.1
2018-06-11T08:28:09.954Z,25.1
2018-06-11T08:29:00.591Z,25.1
2018-06-11T08:29:50.408Z,25.1
2018-06-11T08:30:40.408Z,25.1
2018-06-11T08:31:30.295Z,25.1
2018-06-11T08:32:20.348Z,25.2
2018-06-11T08:33:10.579Z,25.1
2018-06-11T08:34:00.398Z,25.1
2018-06-11T08:34:50.489Z,25.2
2018-06-11T08:35:40.826Z,25.1
2018-06-11T08:36:30.883Z,25.2
2018-06-11T08:37:20.719Z,25.2
2018-06-11T08:38:10.531Z,25.2
2018-06-11T08:39:00.529Z,25.2
2018-06-11T08:39:50.605Z,25.2
2018-06-11T08:40:40.705Z,25.2
2018-06-11T08:41:30.971Z,25.2
2018-06-11T08:42:20.326Z,25.2
2018-06-11T08:43:10.843Z,25.2
2018-06-11T08:44:00.698Z,25.2
2018-06-11T08:44:51.551Z,25.2
2018-06-11T08:45:41.923Z,25.2
2018-06-11T08:46:29.806Z,25.2
2018-06-11T08:47:21.561Z,25.2
2018-06-11T08:48:11.046Z,25.2
2018-06-11T08:49:01.573Z,25.2
2018-06-11T08:49:52.236Z,25.2
2018-06-11T08:50:41.552Z,25.2
2018-06-11T08:51:31.776Z,25.2
2018-06-11T08:52:21.550Z,25.2
2018-06-11T08:53:12.521Z,25.2
2018-06-11T08:54:01.786Z,25.2
2018-06-11T08:54:51.822Z,25.2
2018-06-11T08:55:42.382Z,25.3
2018-06-11T08:56:32.454Z,25.2
2018-06-11T08:57:22.788Z,25.2
2018-06-11T08:58:11.715Z,25.2
2018-06-11T08:59:02.623Z,25.2
2018-06-11T08:59:53.666Z,25.2
2018-06-11T09:00:42.272Z,25.3
2018-06-11T09:01:32.351Z,25.3
2018-06-11T09:02:22.901Z,25.2
2018-06-11T09:03:12.842Z,25.3
2018-06-11T09:04:03.030Z,25.3
2018-06-11T09:04:52.927Z,25.3
2018-06-11T09:05:42.671Z,25.3
2018-06-11T09:06:33.511Z,25.3
2018-06-11T09:07:23.037Z,25.3
2018-06-11T09:08:13.070Z,25.3
2018-06-11T09:09:03.146Z,25.3
2018-06-11T09:09:52.980Z,25.3
2018-06-11T09:10:43.252Z,25.3
2018-06-11T09:11:32.749Z,25.3
2018-06-11T09:12:23.474Z,25.3
2018-06-11T09:13:14.051Z,25.3
2018-06-11T09:14:04.070Z,25.3
2018-06-11T09:14:53.899Z,25.3
2018-06-11T09:15:43.954Z,25.3
2018-06-11T09:16:34.261Z,25.3
2018-06-11T09:17:23.622Z,25.3
2018-06-11T09:18:16.880Z,25.3
2018-06-11T09:19:04.230Z,25.3
2018-06-11T09:19:53.767Z,25.3
2018-06-11T09:20:44.154Z,25.3
2018-06-11T09:21:34.152Z,25.3
2018-06-11T09:22:24.484Z,25.3
2018-06-11T09:23:14.790Z,25.3
2018-06-11T09:24:03.760Z,25.3
2018-06-11T09:24:54.631Z,25.3
2018-06-11T09:25:44.228Z,25.3
2018-06-11T09:26:35.070Z,25.3
2018-06-11T09:27:24.913Z,25.3
2018-06-11T09:28:14.919Z,25.3
2018-06-11T09:29:05.225Z,25.3
2018-06-11T09:29:55.072Z,25.3
2018-06-11T09:30:44.866Z,25.3
2018-06-11T09:31:35.170Z,25.3
2018-06-11T09:32:25.483Z,25.3
2018-06-11T09:33:15.058Z,25.3
2018-06-11T09:34:05.110Z,25.3
2018-06-11T09:34:55.738Z,25.3
2018-06-11T09:35:45.769Z,25.3
2018-06-11T09:36:35.801Z,25.3
2018-06-11T09:37:25.327Z,25.3
2018-06-11T09:38:16.111Z,25.3
2018-06-11T09:39:05.782Z,25.3
2018-06-11T09:39:55.622Z,25.3
2018-06-11T09:40:45.443Z,25.3
2018-06-11T09:41:35.128Z,25.3
2018-06-11T09:42:26.327Z,25.3
2018-06-11T09:43:15.513Z,25.3
2018-06-11T09:44:07.229Z,25.4
2018-06-11T09:44:55.977Z,25.3
2018-06-11T09:45:45.732Z,25.3
2018-06-11T09:46:36.611Z,25.3
2018-06-11T09:47:26.139Z,25.4
2018-06-11T09:48:16.182Z,25.4
2018-06-11T09:49:06.120Z,25.3
2018-06-11T09:49:56.131Z,25.4
2018-06-11T09:50:46.116Z,25.4
2018-06-11T09:51:36.036Z,25.4
2018-06-11T09:52:26.799Z,25.4
2018-06-11T09:53:16.867Z,25.4
2018-06-11T09:54:06.100Z,25.3
2018-06-11T09:54:57.302Z,25.4
2018-06-11T09:55:46.484Z,25.4
2018-06-11T09:56:37.392Z,25.4
2018-06-11T09:57:26.894Z,25.4
2018-06-11T09:58:17.269Z,25.4
2018-06-11T09:59:07.308Z,25.4
2018-06-11T09:59:56.824Z,25.4
2018-06-11T10:00:47.746Z,25.4
2018-06-11T10:01:37.098Z,25.4
2018-06-11T10:02:26.969Z,25.4
2018-06-11T10:03:17.384Z,25.4
2018-06-11T10:04:07.522Z,25.4
2018-06-11T10:04:58.041Z,25.4
2018-06-11T10:05:47.308Z,25.4
2018-06-11T10:06:37.913Z,25.4
2018-06-11T10:07:27.186Z,25.4
2018-06-11T10:08:17.198Z,25.4
2018-06-11T10:09:08.819Z,25.4
2018-06-11T10:09:58.168Z,25.4
2018-06-11T10:10:48.189Z,25.4
2018-06-11T10:11:37.745Z,25.4
2018-06-11T10:12:29.177Z,25.4
2018-06-11T10:13:18.661Z,25.4
2018-06-11T10:14:07.935Z,25.4
2018-06-11T10:14:58.235Z,25.4
2018-06-11T10:15:48.613Z,25.4
2018-06-11T10:16:38.658Z,25.4
2018-06-11T10:17:27.986Z,25.4
2018-06-11T10:18:18.521Z,25.4
2018-06-11T10:19:08.940Z,25.4
2018-06-11T10:19:59.252Z,25.4
2018-06-11T10:20:48.753Z,25.4
2018-06-11T10:21:39.072Z,25.4
2018-06-11T10:22:29.129Z,25.4
2018-06-11T10:23:18.949Z,25.4
2018-06-11T10:24:09.321Z,25.4
2018-06-11T10:25:00.051Z,25.4
2018-06-11T10:25:49.683Z,25.4
2018-06-11T10:26:39.477Z,25.4
2018-06-11T10:27:29.782Z,25.4
2018-06-11T10:28:19.847Z,25.4
2018-06-11T10:29:09.378Z,25.4
2018-06-11T10:29:59.991Z,25.4
2018-06-11T10:30:49.868Z,25.4
2018-06-11T10:31:39.643Z,25.4
2018-06-11T10:32:29.775Z,25.5
2018-06-11T10:33:20.230Z,25.4
2018-06-11T10:34:09.763Z,25.4
2018-06-11T10:35:00.370Z,25.4
2018-06-11T10:35:50.448Z,25.5
2018-06-11T10:36:39.410Z,25.5
2018-06-11T10:37:30.068Z,25.5
2018-06-11T10:38:20.320Z,25.5
2018-06-11T10:39:10.041Z,25.5
2018-06-11T10:39:59.928Z,25.5
2018-06-11T10:40:50.575Z,25.5
2018-06-11T10:41:40.319Z,25.5
2018-06-11T10:42:30.649Z,25.5
2018-06-11T10:43:19.666Z,25.5
2018-06-11T10:44:09.782Z,25.5
2018-06-11T10:45:00.323Z,25.5
2018-06-11T10:45:50.965Z,25.5
2018-06-11T10:46:41.295Z,25.5
2018-06-11T10:47:31.326Z,25.5
2018-06-11T10:48:20.319Z,25.5
2018-06-11T10:49:11.223Z,25.5
2018-06-11T10:50:00.753Z,25.5
2018-06-11T10:50:50.508Z,25.5
2018-06-11T10:51:41.661Z,25.5
2018-06-11T10:52:31.248Z,25.6
2018-06-11T10:53:21.238Z,25.6
2018-06-11T10:54:11.887Z,25.5
2018-06-11T10:55:00.934Z,25.6
2018-06-11T10:55:50.998Z,25.6
2018-06-11T10:56:40.983Z,25.5
2018-06-11T10:57:31.590Z,25.6
2018-06-11T10:58:21.437Z,25.6
2018-06-11T10:59:12.046Z,25.6
2018-06-11T11:00:01.778Z,25.6
2018-06-11T11:00:51.270Z,25.6
2018-06-11T11:01:42.206Z,25.6
2018-06-11T11:02:31.384Z,25.6
2018-06-11T11:03:21.764Z,25.6
2018-06-11T11:04:12.674Z,25.6
2018-06-11T11:05:02.761Z,25.6
2018-06-11T11:05:52.794Z,25.6
2018-06-11T11:06:42.338Z,25.6
2018-06-11T11:07:32.972Z,25.6
2018-06-11T11:08:22.965Z,25.6
2018-06-11T11:09:12.468Z,25.6
2018-06-11T11:10:02.847Z,25.6
2018-06-11T11:10:53.219Z,25.6
2018-06-11T11:11:42.903Z,25.6
2018-06-11T11:12:33.496Z,25.6
2018-06-11T11:13:23.348Z,25.6
2018-06-11T11:14:13.148Z,25.6
2018-06-11T11:15:03.231Z,25.6
2018-06-11T11:15:53.014Z,25.6
2018-06-11T11:16:43.348Z,25.6
2018-06-11T11:17:32.873Z,25.6
2018-06-11T11:18:23.196Z,25.6
2018-06-11T11:19:13.251Z,25.6
2018-06-11T11:20:02.813Z,25.6
2018-06-11T11:20:53.440Z,25.6
2018-06-11T11:21:43.993Z,25.6
2018-06-11T11:22:33.822Z,25.6
2018-06-11T11:23:23.582Z,25.6
2018-06-11T11:24:14.178Z,25.6
2018-06-11T11:25:04.038Z,25.6
2018-06-11T11:25:54.076Z,25.6
2018-06-11T11:26:44.097Z,25.6
2018-06-11T11:27:33.885Z,25.6
2018-06-11T11:28:24.575Z,25.7
2018-06-11T11:29:13.486Z,25.6
2018-06-11T11:30:04.390Z,25.6
2018-06-11T11:30:54.427Z,25.7
2018-06-11T11:31:44.810Z,25.7
2018-06-11T11:32:34.278Z,25.7
2018-06-11T11:33:24.883Z,25.7
2018-06-11T11:34:14.142Z,25.7
2018-06-11T11:35:05.075Z,25.7
2018-06-11T11:35:54.292Z,25.7
2018-06-11T11:36:45.162Z,25.7
2018-06-11T11:37:35.255Z,25.7
2018-06-11T11:38:24.812Z,25.7
2018-06-11T11:39:15.082Z,25.7
2018-06-11T11:40:05.197Z,25.7
2018-06-11T11:40:55.482Z,25.7
2018-06-11T11:41:45.532Z,25.7
2018-06-11T11:42:35.599Z,25.7
2018-06-11T11:43:24.572Z,25.7
2018-06-11T11:44:15.229Z,25.7
2018-06-11T11:45:05.009Z,25.7
2018-06-11T11:45:55.652Z,25.7
2018-06-11T11:46:45.365Z,25.7
2018-06-11T11:47:35.476Z,25.7
2018-06-11T11:48:25.566Z,25.8
2018-06-11T11:49:16.132Z,25.8
2018-06-11T11:50:06.211Z,25.8
2018-06-11T11:50:55.470Z,25.8
2018-06-11T11:51:46.061Z,25.8
2018-06-11T11:52:36.130Z,25.8
2018-06-11T11:53:26.473Z,25.8
2018-06-11T11:54:15.996Z,25.8
2018-06-11T11:55:05.828Z,25.8
2018-06-11T11:55:56.684Z,25.8
2018-06-11T11:56:45.914Z,25.8
2018-06-11T11:57:37.042Z,25.8
2018-06-11T11:58:26.895Z,25.8
2018-06-11T11:59:16.976Z,25.8
2018-06-11T12:00:06.454Z,25.8
2018-06-11T12:00:56.494Z,25.8
2018-06-11T12:01:47.877Z,25.8
2018-06-11T12:02:36.959Z,25.8
2018-06-11T12:03:27.289Z,25.8
2018-06-11T12:04:16.547Z,25.8
2018-06-11T12:05:07.099Z,25.8
2018-06-11T12:05:56.902Z,25.8
2018-06-11T12:06:47.526Z,25.8
2018-06-11T12:07:37.517Z,25.8
2018-06-11T12:08:27.429Z,25.8
2018-06-11T12:09:17.157Z,25.8
2018-06-11T12:10:07.283Z,25.8
2018-06-11T12:10:57.328Z,25.8
2018-06-11T12:11:47.466Z,25.8
2018-06-11T12:12:37.432Z,25.8
2018-06-11T12:13:27.506Z,25.8
2018-06-11T12:14:17.314Z,25.8
2018-06-11T12:15:07.924Z,25.8
2018-06-11T12:15:57.963Z,25.9
2018-06-11T12:16:47.737Z,25.8
2018-06-11T12:17:38.113Z,25.8
2018-06-11T12:18:28.484Z,25.8
2018-06-11T12:19:18.503Z,25.8
2018-06-11T12:20:08.239Z,25.8
2018-06-11T12:20:58.346Z,25.8
2018-06-11T12:21:48.394Z,25.9
2018-06-11T12:22:38.743Z,25.8
2018-06-11T12:23:28.792Z,25.9
2018-06-11T12:24:18.337Z,25.9
2018-06-11T12:25:09.707Z,25.9
2018-06-11T12:25:58.194Z,25.9
2018-06-11T12:26:48.267Z,25.9
2018-06-11T12:27:39.147Z,25.9
2018-06-11T12:28:29.176Z,25.9
2018-06-11T12:29:18.450Z,25.9
2018-06-11T12:30:09.057Z,25.9
2018-06-11T12:30:59.113Z,25.9
2018-06-11T12:31:48.337Z,25.9
2018-06-11T12:32:38.994Z,25.9
2018-06-11T12:33:29.306Z,25.9
2018-06-11T12:34:19.358Z,25.9
2018-06-11T12:35:09.164Z,25.9
2018-06-11T12:35:59.202Z,25.9
2018-06-11T12:36:48.999Z,25.9
2018-06-11T12:37:39.394Z,25.9
2018-06-11T12:38:30.075Z,25.9
2018-06-11T12:39:19.209Z,25.9
2018-06-11T12:40:09.306Z,25.9
2018-06-11T12:40:59.890Z,25.9
2018-06-11T12:41:49.978Z,25.9
2018-06-11T12:42:39.777Z,25.9
2018-06-11T12:43:29.546Z,25.9
2018-06-11T12:44:19.324Z,25.9
2018-06-11T12:45:09.729Z,25.9
2018-06-11T12:46:00.032Z,25.9
2018-06-11T12:46:50.385Z,25.9
2018-06-11T12:47:40.968Z,25.9
2018-06-11T12:48:30.187Z,25.9
2018-06-11T12:49:20.894Z,25.9
2018-06-11T12:50:09.541Z,25.9
2018-06-11T12:51:00.106Z,25.9
2018-06-11T12:51:50.723Z,26
2018-06-11T12:52:41.004Z,25.9
2018-06-11T12:53:31.149Z,26
2018-06-11T12:54:20.464Z,26
2018-06-11T12:55:10.749Z,26
2018-06-11T12:56:01.323Z,26
2018-06-11T12:56:51.135Z,26
2018-06-11T12:57:41.222Z,26
2018-06-11T12:58:30.425Z,26
2018-06-11T12:59:21.326Z,26
2018-06-11T13:00:11.428Z,26
2018-06-11T13:01:01.504Z,26
2018-06-11T13:01:51.906Z,26
2018-06-11T13:02:41.940Z,26.1
2018-06-11T13:03:31.650Z,26.1
2018-06-11T13:04:21.253Z,26.1
2018-06-11T13:05:12.120Z,26.1
2018-06-11T13:06:01.615Z,26.1
2018-06-11T13:06:51.929Z,26.1
2018-06-11T13:07:41.979Z,26.1
2018-06-11T13:08:32.335Z,26.1
2018-06-11T13:09:22.369Z,26.1
2018-06-11T13:10:12.269Z,26.1
2018-06-11T13:11:02.564Z,26.1
2018-06-11T13:11:51.532Z,26.1
2018-06-11T13:12:42.119Z,26.1
2018-06-11T13:13:32.208Z,26.1
2018-06-11T13:14:21.987Z,26.1
2018-06-11T13:15:12.349Z,26.1
2018-06-11T13:16:02.102Z,26.1
2018-06-11T13:16:52.992Z,26.1
2018-06-11T13:17:42.444Z,26.1
2018-06-11T13:18:32.009Z,26.1
2018-06-11T13:19:22.142Z,26.1
2018-06-11T13:20:12.802Z,26.1
2018-06-11T13:21:02.755Z,26.2
2018-06-11T13:21:53.401Z,26.2
2018-06-11T13:22:43.201Z,26.2
2018-06-11T13:23:33.018Z,26.2
2018-06-11T13:24:22.529Z,26.2
2018-06-11T13:25:12.244Z,26.2
2018-06-11T13:26:03.164Z,26.2
2018-06-11T13:26:52.941Z,26.2
2018-06-11T13:27:43.557Z,26.2
2018-06-11T13:28:33.063Z,26.2
2018-06-11T13:29:23.965Z,26.2
2018-06-11T13:30:13.761Z,26.2
2018-06-11T13:31:03.008Z,26.3
2018-06-11T13:31:53.601Z,26.3
2018-06-11T13:32:43.685Z,26.3
2018-06-11T13:33:34.002Z,26.2
2018-06-11T13:34:23.788Z,26.3
2018-06-11T13:35:14.411Z,26.3
2018-06-11T13:36:04.239Z,26.3
2018-06-11T13:36:53.468Z,26.3
2018-06-11T13:37:42.942Z,26.3
2018-06-11T13:38:34.403Z,26.3
2018-06-11T13:39:24.500Z,26.3
2018-06-11T13:40:14.560Z,26.3
2018-06-11T13:41:04.326Z,26.3
2018-06-11T13:41:54.679Z,26.3
2018-06-11T13:42:44.773Z,26.3
2018-06-11T13:43:34.555Z,26.3
2018-06-11T13:44:24.874Z,26.3
2018-06-11T13:45:14.970Z,26.3
2018-06-11T13:46:04.742Z,26.3
2018-06-11T13:46:54.235Z,26.3
2018-06-11T13:47:44.883Z,26.3
2018-06-11T13:48:35.200Z,26.3
2018-06-11T13:49:24.445Z,26.3
2018-06-11T13:50:15.858Z,26.3
2018-06-11T13:51:05.657Z,26.3
2018-06-11T13:51:54.876Z,26.3
2018-06-11T13:52:45.583Z,26.3
2018-06-11T13:53:35.661Z,26.3
2018-06-11T13:54:25.610Z,26.3
2018-06-11T13:55:16.014Z,26.3
2018-06-11T13:56:05.761Z,26.3
2018-06-11T13:56:55.792Z,26.3
2018-06-11T13:57:45.878Z,26.3
2018-06-11T13:58:35.967Z,26.3
2018-06-11T13:59:25.736Z,26.3
2018-06-11T14:00:16.139Z,26.3
2018-06-11T14:01:05.876Z,26.3
2018-06-11T14:01:56.490Z,26.3
2018-06-11T14:02:46.557Z,26.3
2018-06-11T14:03:36.073Z,26.3
2018-06-11T14:04:26.138Z,26.3
2018-06-11T14:05:16.327Z,26.3
2018-06-11T14:06:06.066Z,26.3
2018-06-11T14:06:56.600Z,26.3
2018-06-11T14:07:47.052Z,26.3
2018-06-11T14:08:36.459Z,26.3
2018-06-11T14:09:27.123Z,26.3
2018-06-11T14:10:17.228Z,26.3
2018-06-11T14:11:06.968Z,26.3
2018-06-11T14:11:56.195Z,26.3
2018-06-11T14:12:46.421Z,26.3
2018-06-11T14:13:36.896Z,26.3
2018-06-11T14:14:27.190Z,26.3
2018-06-11T14:15:16.998Z,26.3
2018-06-11T14:16:06.542Z,26.4
2018-06-11T14:16:57.415Z,26.4
2018-06-11T14:17:46.632Z,26.4
2018-06-11T14:18:36.976Z,26.4
2018-06-11T14:19:27.240Z,26.4
2018-06-11T14:20:17.705Z,26.4
2018-06-11T14:21:07.775Z,26.4
2018-06-11T14:21:58.037Z,26.4
2018-06-11T14:22:47.350Z,26.5
2018-06-11T14:23:37.881Z,26.5
2018-06-11T14:24:27.700Z,26.5
2018-06-11T14:25:17.489Z,26.6
2018-06-11T14:26:07.861Z,26.6
2018-06-11T14:26:58.200Z,26.6
2018-06-11T14:27:48.224Z,26.6
2018-06-11T14:28:38.727Z,26.7
2018-06-11T14:29:28.102Z,26.8
2018-06-11T14:30:17.906Z,26.8
2018-06-11T14:31:07.759Z,26.8
2018-06-11T14:31:58.044Z,26.8
2018-06-11T14:32:47.262Z,26.8
2018-06-11T14:33:39.073Z,26.9
2018-06-11T14:34:29.069Z,26.9
2018-06-11T14:35:17.564Z,26.9
2018-06-11T14:36:09.181Z,26.9
2018-06-11T14:36:58.707Z,27
2018-06-11T14:37:49.298Z,27
2018-06-11T14:38:38.779Z,27
2018-06-11T14:39:28.974Z,27.1
2018-06-11T14:40:19.518Z,27.1
2018-06-11T14:41:09.216Z,27.1
2018-06-11T14:41:59.618Z,27.1
2018-06-11T14:42:49.491Z,27.1
2018-06-11T14:43:39.505Z,27.1
2018-06-11T14:44:29.077Z,27.1
2018-06-11T14:45:19.320Z,27.2
2018-06-11T14:46:09.150Z,27.2
2018-06-11T14:46:59.733Z,27.2
2018-06-11T14:47:49.003Z,27.2
2018-06-11T14:48:40.167Z,27.3
2018-06-11T14:49:30.299Z,27.3
2018-06-11T14:50:19.493Z,27.3
2018-06-11T14:51:09.535Z,27.3
2018-06-11T14:51:59.615Z,27.3
2018-06-11T14:52:49.651Z,27.3
2018-06-11T14:53:39.721Z,27.3
2018-06-11T14:54:30.387Z,27.3
2018-06-11T14:55:20.677Z,27.3
2018-06-11T14:56:10.209Z,27.4
2018-06-11T14:57:00.189Z,27.4
2018-06-11T14:57:50.571Z,27.4
2018-06-11T14:58:40.963Z,27.4
2018-06-11T14:59:30.967Z,27.4
2018-06-11T15:00:21.051Z,27.4
2018-06-11T15:01:11.123Z,27.4
2018-06-11T15:02:00.733Z,27.4
2018-06-11T15:02:50.990Z,27.4
2018-06-11T15:03:40.928Z,27.4
2018-06-11T15:04:30.373Z,27.4
2018-06-11T15:05:21.171Z,27.4
2018-06-11T15:06:10.952Z,27.4
2018-06-11T15:07:01.041Z,27.4
2018-06-11T15:07:51.181Z,27.3
2018-06-11T15:08:41.656Z,27.3
2018-06-11T15:09:32.387Z,27.3
2018-06-11T15:10:21.542Z,27.3
2018-06-11T15:11:11.949Z,27.3
2018-06-11T15:12:01.960Z,27.2
2018-06-11T15:12:51.452Z,27.2
2018-06-11T15:13:41.781Z,27.2
2018-06-11T15:14:32.198Z,27.1
2018-06-11T15:15:21.993Z,27.1
2018-06-11T15:16:12.280Z,27.1
2018-06-11T15:17:02.074Z,27.1
2018-06-11T15:17:52.421Z,27.1
2018-06-11T15:18:42.202Z,27.1
2018-06-11T15:19:32.554Z,27
2018-06-11T15:20:22.350Z,27
2018-06-11T15:21:12.669Z,27
2018-06-11T15:22:02.716Z,27
2018-06-11T15:22:52.538Z,26.9
2018-06-11T15:23:42.935Z,26.9
2018-06-11T15:24:32.756Z,26.9
2018-06-11T15:25:22.746Z,26.9
2018-06-11T15:26:13.110Z,26.9
2018-06-11T15:27:02.640Z,26.9
2018-06-11T15:27:53.215Z,26.9
2018-06-11T15:28:42.190Z,26.9
2018-06-11T15:29:33.446Z,26.9
2018-06-11T15:30:23.127Z,26.9
2018-06-11T15:31:13.467Z,26.9
2018-06-11T15:32:03.516Z,26.8
2018-06-11T15:32:52.477Z,26.8
2018-06-11T15:33:43.359Z,26.8
2018-06-11T15:34:32.896Z,26.8
2018-06-11T15:35:23.521Z,26.8
2018-06-11T15:36:13.828Z,26.8
2018-06-11T15:37:03.109Z,26.8
2018-06-11T15:37:53.986Z,26.8
2018-06-11T15:38:43.799Z,26.8
2018-06-11T15:39:33.580Z,26.8
2018-06-11T15:40:24.183Z,26.9
2018-06-11T15:41:13.700Z,26.8
2018-06-11T15:42:03.554Z,26.9
2018-06-11T15:42:54.400Z,26.8
2018-06-11T15:43:43.597Z,26.8
2018-06-11T15:44:33.120Z,26.8
2018-06-11T15:45:24.323Z,26.8
2018-06-11T15:46:14.073Z,26.8
2018-06-11T15:47:04.123Z,26.8
2018-06-11T15:47:54.516Z,26.8
2018-06-11T15:48:44.290Z,26.8
2018-06-11T15:49:34.373Z,26.8
2018-06-11T15:50:24.725Z,26.8
2018-06-11T15:51:14.756Z,26.9
2018-06-11T15:52:05.059Z,26.9
2018-06-11T15:52:54.881Z,26.9
2018-06-11T15:53:44.100Z,26.9
2018-06-11T15:54:34.753Z,26.9
2018-06-11T15:55:25.360Z,26.9
2018-06-11T15:56:14.556Z,26.9
2018-06-11T15:57:04.920Z,26.9
2018-06-11T15:57:55.612Z,26.9
2018-06-11T15:58:45.060Z,26.9
2018-06-11T15:59:34.269Z,27
2018-06-11T16:00:25.200Z,27
2018-06-11T16:01:15.226Z,27
2018-06-11T16:02:05.030Z,27.1
2018-06-11T16:02:55.637Z,27.1
2018-06-11T16:03:45.708Z,27.1
2018-06-11T16:04:35.761Z,27.1
2018-06-11T16:05:26.555Z,27.1
2018-06-11T16:06:15.936Z,27.1
2018-06-11T16:07:05.715Z,27.1
2018-06-11T16:07:56.025Z,27.1
2018-06-11T16:08:46.191Z,27.1
2018-06-11T16:09:35.936Z,27.1
2018-06-11T16:10:25.413Z,27.2
2018-06-11T16:11:16.310Z,27.2
2018-06-11T16:12:06.495Z,27.2
2018-06-11T16:12:56.458Z,27.2
2018-06-11T16:13:46.799Z,27.2
2018-06-11T16:14:36.139Z,27.2
2018-06-11T16:15:26.893Z,27.3
2018-06-11T16:16:16.400Z,27.3
2018-06-11T16:17:07.046Z,27.2
2018-06-11T16:17:56.810Z,27.2
2018-06-11T16:18:46.899Z,27.3
2018-06-11T16:19:36.667Z,27.3
2018-06-11T16:20:27.035Z,27.3
2018-06-11T16:21:17.342Z,27.3
2018-06-11T16:22:07.484Z,27.3
2018-06-11T16:22:57.495Z,27.3
2018-06-11T16:23:47.279Z,27.3
2018-06-11T16:24:36.874Z,27.3
2018-06-11T16:25:27.497Z,27.3
2018-06-11T16:26:16.952Z,27.2
2018-06-11T16:27:07.577Z,27.2
2018-06-11T16:27:57.713Z,27.2
2018-06-11T16:28:47.395Z,27.2
2018-06-11T16:29:37.440Z,27.2
2018-06-11T16:30:27.519Z,27.1
2018-06-11T16:31:17.878Z,27.1
2018-06-11T16:32:08.259Z,27.1
2018-06-11T16:32:57.721Z,27.1
2018-06-11T16:33:48.078Z,27.1
2018-06-11T16:34:37.936Z,27.1
2018-06-11T16:35:27.943Z,27
2018-06-11T16:36:18.032Z,27
2018-06-11T16:37:09.595Z,27
2018-06-11T16:37:58.103Z,27
2018-06-11T16:38:48.183Z,27
2018-06-11T16:39:38.818Z,27
2018-06-11T16:40:28.585Z,26.9
2018-06-11T16:41:17.530Z,26.9
2018-06-11T16:42:09.071Z,26.9
2018-06-11T16:42:59.895Z,26.9
2018-06-11T16:43:48.596Z,26.9
2018-06-11T16:44:38.369Z,26.9
2018-06-11T16:45:28.140Z,26.9
2018-06-11T16:46:19.029Z,26.9
2018-06-11T16:47:08.393Z,26.8
2018-06-11T16:47:59.481Z,26.8
2018-06-11T16:48:49.813Z,26.8
2018-06-11T16:49:39.663Z,26.8
2018-06-11T16:50:28.615Z,26.8
2018-06-11T16:51:19.216Z,26.8
2018-06-11T16:52:09.216Z,26.8
2018-06-11T16:52:59.308Z,26.8
2018-06-11T16:53:49.885Z,26.8
2018-06-11T16:54:40.030Z,26.8
2018-06-11T16:55:29.797Z,26.8
2018-06-11T16:56:18.749Z,26.8
2018-06-11T16:57:09.301Z,26.8
2018-06-11T16:57:59.227Z,26.7
2018-06-11T16:58:49.509Z,26.7
2018-06-11T16:59:40.415Z,26.7
2018-06-11T17:00:29.869Z,26.7
2018-06-11T17:01:19.989Z,26.7
2018-06-11T17:02:08.127Z,26.7
2018-06-11T17:03:00.163Z,26.6
2018-06-11T17:03:49.019Z,26.6
2018-06-11T17:04:39.116Z,26.6
2018-06-11T17:05:29.438Z,26.6
2018-06-11T17:06:19.658Z,26.6
2018-06-11T17:07:09.494Z,26.6
2018-06-11T17:07:58.578Z,26.6
2018-06-11T17:08:49.308Z,26.6
2018-06-11T17:09:40.449Z,26.6
2018-06-11T17:10:29.646Z,26.6
2018-06-11T17:11:20.210Z,26.6
2018-06-11T17:12:09.323Z,26.6
2018-06-11T17:12:59.556Z,26.6
2018-06-11T17:13:49.590Z,26.6
2018-06-11T17:14:40.819Z,26.6
2018-06-11T17:15:30.358Z,26.6
2018-06-11T17:16:19.967Z,26.6
2018-06-11T17:17:11.506Z,26.6
2018-06-11T17:18:01.495Z,26.6
2018-06-11T17:18:51.583Z,26.6
2018-06-11T17:19:41.932Z,26.6
2018-06-11T17:20:31.717Z,26.6
2018-06-11T17:21:22.050Z,26.6
2018-06-11T17:22:12.105Z,26.6
2018-06-11T17:23:02.206Z,26.6
2018-06-11T17:23:51.703Z,26.5
2018-06-11T17:24:41.755Z,26.6
2018-06-11T17:25:32.546Z,26.5
2018-06-11T17:26:21.857Z,26.5
2018-06-11T17:27:11.656Z,26.5
2018-06-11T17:28:02.249Z,26.5
2018-06-11T17:28:52.610Z,26.5
2018-06-11T17:29:42.096Z,26.5
2018-06-11T17:30:32.736Z,26.5
2018-06-11T17:31:22.234Z,26.5
2018-06-11T17:32:12.876Z,26.5
2018-06-11T17:33:02.962Z,26.5
2018-06-11T17:33:52.452Z,26.4
2018-06-11T17:34:43.584Z,26.5
2018-06-11T17:35:33.163Z,26.4
2018-06-11T17:36:23.231Z,26.4
2018-06-11T17:37:13.032Z,26.4
2018-06-11T17:38:02.814Z,26.4
2018-06-11T17:38:52.863Z,26.4
2018-06-11T17:39:42.617Z,26.4
2018-06-11T17:40:33.033Z,26.4
2018-06-11T17:41:23.303Z,26.4
2018-06-11T17:42:13.089Z,26.4
2018-06-11T17:43:03.292Z,26.4
2018-06-11T17:43:53.804Z,26.4
2018-06-11T17:44:44.442Z,26.4
2018-06-11T17:45:32.843Z,26.4
2018-06-11T17:46:23.225Z,26.4
2018-06-11T17:47:13.269Z,26.4
2018-06-11T17:48:03.568Z,26.4
2018-06-11T17:48:53.608Z,26.4
2018-06-11T17:49:44.305Z,26.4
2018-06-11T17:50:33.749Z,26.4
2018-06-11T17:51:24.712Z,26.4
2018-06-11T17:52:14.592Z,26.4
2018-06-11T17:53:03.157Z,26.4
2018-06-11T17:53:54.306Z,26.4
2018-06-11T17:54:45.198Z,26.4
2018-06-11T17:55:34.120Z,26.4
2018-06-11T17:56:24.488Z,26.4
2018-06-11T17:57:14.501Z,26.4
2018-06-11T17:58:04.635Z,26.4
2018-06-11T17:58:54.782Z,26.4
2018-06-11T17:59:44.475Z,26.4
2018-06-11T18:00:35.877Z,26.4
2018-06-11T18:01:24.327Z,26.4
2018-06-11T18:02:15.008Z,26.4
2018-06-11T18:03:04.803Z,26.3
2018-06-11T18:03:54.533Z,26.3
2018-06-11T18:04:45.815Z,26.3
2018-06-11T18:05:36.006Z,26.3
2018-06-11T18:06:24.735Z,26.3
2018-06-11T18:07:14.787Z,26.3
2018-06-11T18:08:05.643Z,26.3
2018-06-11T18:08:55.472Z,26.3
2018-06-11T18:09:45.908Z,26.3
2018-06-11T18:10:35.067Z,26.3
2018-06-11T18:11:25.952Z,26.3
2018-06-11T18:12:15.412Z,26.3
2018-06-11T18:13:04.967Z,26.3
2018-06-11T18:13:54.995Z,26.3
2018-06-11T18:14:45.901Z,26.3
2018-06-11T18:15:36.260Z,26.3
2018-06-11T18:16:26.060Z,26.3
2018-06-11T18:17:16.142Z,26.3
2018-06-11T18:18:05.922Z,26.3
2018-06-11T18:18:54.818Z,26.3
2018-06-11T18:19:46.297Z,26.3
2018-06-11T18:20:36.115Z,26.3
2018-06-11T18:21:26.524Z,26.3
2018-06-11T18:22:16.247Z,26.3
2018-06-11T18:23:06.284Z,26.3
2018-06-11T18:23:56.117Z,26.3
2018-06-11T18:24:46.721Z,26.3
2018-06-11T18:25:36.264Z,26.3
2018-06-11T18:26:27.160Z,26.3
2018-06-11T18:27:17.191Z,26.3
2018-06-11T18:28:06.672Z,26.3
2018-06-11T18:28:56.749Z,26.3
2018-06-11T18:29:45.968Z,26.3
2018-06-11T18:30:36.294Z,26.3
2018-06-11T18:31:26.928Z,26.3
2018-06-11T18:32:17.355Z,26.3
2018-06-11T18:33:05.936Z,26.2
2018-06-11T18:33:57.484Z,26.2
2018-06-11T18:34:47.476Z,26.2
2018-06-11T18:35:37.631Z,26.2